createdAt,value
2019-02-17T00:00:01.349Z,100.00
2019-02-17T00:02:29.782Z,100.00
2019-02-17T00:04:58.200Z,100.00
2019-02-17T00:07:26.646Z,100.00
2019-02-17T00:09:55.068Z,100.00
2019-02-17T00:12:23.515Z,100.00
2019-02-17T00:14:51.947Z,100.00
2019-02-17T00:17:20.373Z,100.00
2019-02-17T00:19:48.823Z,100.00
2019-02-17T00:22:17.246Z,100.00
2019-02-17T00:24:45.691Z,100.00
2019-02-17T00:27:14.120Z,100.00
2019-02-17T00:29:42.580Z,100.00
2019-02-17T00:32:11.060Z,100.00
2019-02-17T00:34:39.512Z,100.00
2019-02-17T00:37:07.932Z,100.00
2019-02-17T00:39:36.379Z,100.00
2019-02-17T00:42:04.879Z,100.00
2019-02-17T00:44:33.345Z,100.00
2019-02-17T00:47:01.833Z,100.00
2019-02-17T00:49:30.296Z,100.00
2019-02-17T00:51:58.720Z,100.00
2019-02-17T00:54:27.183Z,100.00
2019-02-17T00:56:55.607Z,100.00
2019-02-17T00:59:24.068Z,100.00
2019-02-17T01:01:52.491Z,100.00
2019-02-17T01:04:20.952Z,100.00
2019-02-17T01:06:49.369Z,100.00
2019-02-17T01:09:17.825Z,100.00
2019-02-17T01:11:46.251Z,100.00
2019-02-17T01:14:14.707Z,100.00
2019-02-17T01:16:43.140Z,100.00
2019-02-17T01:19:11.593Z,100.00
2019-02-17T01:21:40.017Z,100.00
2019-02-17T01:24:08.642Z,100.00
2019-02-17T01:26:37.071Z,100.00
2019-02-17T01:29:05.520Z,100.00
2019-02-17T01:31:33.939Z,100.00
2019-02-17T01:34:05.581Z,100.00
2019-02-17T01:36:34.005Z,100.00
2019-02-17T01:39:02.425Z,100.00
2019-02-17T01:41:30.875Z,100.00
2019-02-17T01:43:59.301Z,100.00
2019-02-17T01:46:27.755Z,100.00
2019-02-17T01:48:56.183Z,100.00
2019-02-17T01:51:24.632Z,100.00
2019-02-17T01:53:53.063Z,100.00
2019-02-17T01:56:21.521Z,100.00
2019-02-17T01:58:49.940Z,100.00
2019-02-17T02:01:18.461Z,100.00
2019-02-17T02:03:46.893Z,100.00
2019-02-17T02:06:16.291Z,100.00
2019-02-17T02:08:44.716Z,100.00
2019-02-17T02:11:13.243Z,100.00
2019-02-17T02:13:41.673Z,100.00
2019-02-17T02:16:10.190Z,100.00
2019-02-17T02:18:38.671Z,100.00
2019-02-17T02:21:07.145Z,100.00
2019-02-17T02:23:35.577Z,100.00
2019-02-17T02:26:04.018Z,100.00
2019-02-17T02:28:32.435Z,100.00
2019-02-17T02:31:00.884Z,100.00
2019-02-17T02:33:29.309Z,100.00
2019-02-17T02:35:57.765Z,100.00
2019-02-17T02:38:26.180Z,100.00
2019-02-17T02:40:54.630Z,100.00
2019-02-17T02:43:23.059Z,100.00
2019-02-17T02:45:51.575Z,100.00
2019-02-17T02:48:19.997Z,100.00
2019-02-17T02:50:48.516Z,100.00
2019-02-17T02:53:16.939Z,100.00
2019-02-17T02:55:45.390Z,100.00
2019-02-17T02:58:13.812Z,100.00
2019-02-17T03:00:42.241Z,100.00
2019-02-17T03:03:10.697Z,100.00
2019-02-17T03:05:40.768Z,100.00
2019-02-17T03:08:09.229Z,100.00
2019-02-17T03:10:37.638Z,100.00
2019-02-17T03:13:06.092Z,100.00
2019-02-17T03:15:34.514Z,100.00
2019-02-17T03:18:02.970Z,100.00
2019-02-17T03:20:31.382Z,100.00
2019-02-17T03:22:59.852Z,100.00
2019-02-17T03:25:28.273Z,100.00
2019-02-17T03:27:56.724Z,100.00
2019-02-17T03:30:25.134Z,100.00
2019-02-17T03:32:53.585Z,100.00
2019-02-17T03:35:22.002Z,100.00
2019-02-17T03:37:50.458Z,100.00
2019-02-17T03:40:18.871Z,100.00
2019-02-17T03:42:47.321Z,100.00
2019-02-17T03:45:15.743Z,100.00
2019-02-17T03:47:44.191Z,100.00
2019-02-17T03:50:12.613Z,100.00
2019-02-17T03:52:41.124Z,100.00
2019-02-17T03:55:09.693Z,100.00
2019-02-17T03:57:38.131Z,100.00
2019-02-17T04:00:16.549Z,100.00
2019-02-17T04:02:38.379Z,100.00
2019-02-17T04:05:06.978Z,100.00
2019-02-17T04:07:35.429Z,100.00
2019-02-17T04:10:03.924Z,100.00
2019-02-17T04:12:32.384Z,100.00
2019-02-17T04:15:00.872Z,100.00
2019-02-17T04:17:29.317Z,100.00
2019-02-17T04:19:57.744Z,100.00
2019-02-17T04:22:26.205Z,100.00
2019-02-17T04:24:54.614Z,100.00
2019-02-17T04:27:23.136Z,100.00
2019-02-17T04:29:51.562Z,100.00
2019-02-17T04:32:20.019Z,100.00
2019-02-17T04:34:48.443Z,100.00
2019-02-17T04:37:17.041Z,100.00
2019-02-17T04:39:45.456Z,100.00
2019-02-17T04:42:13.886Z,100.00
2019-02-17T04:44:42.342Z,100.00
2019-02-17T04:47:10.758Z,100.00
2019-02-17T04:49:39.214Z,100.00
2019-02-17T04:52:07.642Z,100.00
2019-02-17T04:54:36.092Z,100.00
2019-02-17T04:57:04.514Z,100.00
2019-02-17T04:59:32.958Z,100.00
2019-02-17T05:02:01.385Z,100.00
2019-02-17T05:04:29.840Z,100.00
2019-02-17T05:06:58.263Z,100.00
2019-02-17T05:09:26.717Z,100.00
2019-02-17T05:11:55.138Z,100.00
2019-02-17T05:14:23.596Z,100.00
2019-02-17T05:16:52.021Z,100.00
2019-02-17T05:19:20.467Z,100.00
2019-02-17T05:21:48.893Z,100.00
2019-02-17T05:24:17.335Z,100.00
2019-02-17T05:26:45.758Z,100.00
2019-02-17T05:29:14.202Z,100.00
2019-02-17T05:31:42.632Z,100.00
2019-02-17T05:34:11.074Z,100.00
2019-02-17T05:36:39.491Z,100.00
2019-02-17T05:39:07.936Z,100.00
2019-02-17T05:41:36.358Z,100.00
2019-02-17T05:44:04.875Z,100.00
2019-02-17T05:46:33.287Z,100.00
2019-02-17T05:49:01.733Z,100.00
2019-02-17T05:51:30.153Z,100.00
2019-02-17T05:53:58.604Z,100.00
2019-02-17T05:56:27.033Z,100.00
2019-02-17T05:58:55.477Z,100.00
2019-02-17T06:01:23.893Z,100.00
2019-02-17T06:03:52.348Z,100.00
2019-02-17T06:06:20.842Z,100.00
2019-02-17T06:08:49.281Z,100.00
2019-02-17T06:11:17.706Z,100.00
2019-02-17T06:13:46.160Z,100.00
2019-02-17T06:16:14.585Z,100.00
2019-02-17T06:18:43.043Z,100.00
2019-02-17T06:21:11.471Z,100.00
2019-02-17T06:23:39.922Z,100.00
2019-02-17T06:26:08.354Z,100.00
2019-02-17T06:28:36.779Z,100.00
2019-02-17T06:31:13.954Z,100.00
2019-02-17T06:33:35.366Z,100.00
2019-02-17T06:36:03.815Z,100.00
2019-02-17T06:38:32.246Z,100.00
2019-02-17T06:41:00.696Z,100.00
2019-02-17T06:43:29.128Z,100.00
2019-02-17T06:45:57.579Z,100.00
2019-02-17T06:48:26.001Z,100.00
2019-02-17T06:50:54.454Z,100.00
2019-02-17T06:53:22.876Z,100.00
2019-02-17T06:55:52.960Z,100.00
2019-02-17T06:58:21.455Z,100.00
2019-02-17T07:00:49.909Z,100.00
2019-02-17T07:03:18.342Z,100.00
2019-02-17T07:05:51.127Z,100.00
2019-02-17T07:08:19.545Z,100.00
2019-02-17T07:10:47.988Z,100.00
2019-02-17T07:13:16.418Z,100.00
2019-02-17T07:15:44.870Z,100.00
2019-02-17T07:18:13.285Z,100.00
2019-02-17T07:20:41.744Z,100.00
2019-02-17T07:23:10.167Z,100.00
2019-02-17T07:25:38.614Z,100.00
2019-02-17T07:28:07.046Z,100.00
2019-02-17T07:30:35.498Z,100.00
2019-02-17T07:33:03.924Z,100.00
2019-02-17T07:35:32.373Z,100.00
2019-02-17T07:38:00.799Z,100.00
2019-02-17T07:40:29.251Z,100.00
2019-02-17T07:42:57.683Z,100.00
2019-02-17T07:45:26.131Z,100.00
2019-02-17T07:47:54.564Z,100.00
2019-02-17T07:50:23.007Z,100.00
2019-02-17T07:52:51.433Z,100.00
2019-02-17T07:55:19.891Z,100.00
2019-02-17T07:57:48.314Z,100.00
2019-02-17T08:00:16.772Z,100.00
2019-02-17T08:02:45.201Z,100.00
2019-02-17T08:05:13.655Z,100.00
2019-02-17T08:07:42.077Z,100.00
2019-02-17T08:10:10.794Z,100.00
2019-02-17T08:12:39.220Z,100.00
2019-02-17T08:15:10.113Z,100.00
2019-02-17T08:17:38.533Z,100.00
2019-02-17T08:20:09.602Z,100.00
2019-02-17T08:22:38.019Z,100.00
2019-02-17T08:25:08.120Z,100.00
2019-02-17T08:27:36.540Z,100.00
2019-02-17T08:30:07.971Z,100.00
2019-02-17T08:32:36.418Z,100.00
2019-02-17T08:35:05.089Z,100.00
2019-02-17T08:37:33.541Z,100.00
2019-02-17T08:40:01.970Z,100.00
2019-02-17T08:42:30.423Z,100.00
2019-02-17T08:44:58.847Z,100.00
2019-02-17T08:47:27.299Z,100.00
2019-02-17T08:49:55.724Z,100.00
2019-02-17T08:52:24.177Z,100.00
2019-02-17T08:54:52.602Z,100.00
2019-02-17T08:57:21.062Z,100.00
2019-02-17T08:59:49.493Z,100.00
2019-02-17T09:02:17.951Z,100.00
2019-02-17T09:04:46.372Z,100.00
2019-02-17T09:07:14.822Z,100.00
2019-02-17T09:09:43.241Z,100.00
2019-02-17T09:12:11.694Z,100.00
2019-02-17T09:14:40.124Z,100.00
2019-02-17T09:17:08.594Z,100.00
2019-02-17T09:19:37.015Z,100.00
2019-02-17T09:22:05.471Z,100.00
2019-02-17T09:24:33.965Z,100.00
2019-02-17T09:27:02.411Z,100.00
2019-02-17T09:29:30.844Z,100.00
2019-02-17T09:31:59.587Z,100.00
2019-02-17T09:34:28.003Z,100.00
2019-02-17T09:36:56.454Z,100.00
2019-02-17T09:39:24.889Z,100.00
2019-02-17T09:41:53.336Z,100.00
2019-02-17T09:44:21.762Z,100.00
2019-02-17T09:46:50.211Z,100.00
2019-02-17T09:49:18.643Z,100.00
2019-02-17T09:51:47.163Z,100.00
2019-02-17T09:54:15.601Z,100.00
2019-02-17T09:56:44.072Z,100.00
2019-02-17T09:59:12.504Z,100.00
2019-02-17T10:01:42.695Z,100.00
2019-02-17T10:04:11.242Z,100.00
2019-02-17T10:06:39.685Z,100.00
2019-02-17T10:09:08.108Z,100.00
2019-02-17T10:11:36.558Z,100.00
2019-02-17T10:14:05.045Z,100.00
2019-02-17T10:16:33.473Z,100.00
2019-02-17T10:19:01.972Z,100.00
2019-02-17T10:21:30.419Z,100.00
2019-02-17T10:23:58.870Z,100.00
2019-02-17T10:26:27.362Z,100.00
2019-02-17T10:28:55.820Z,100.00
2019-02-17T10:31:24.316Z,100.00
2019-02-17T10:33:52.772Z,100.00
2019-02-17T10:36:21.195Z,100.00
2019-02-17T10:38:49.661Z,100.00
2019-02-17T10:41:18.098Z,100.00
2019-02-17T10:43:46.622Z,100.00
2019-02-17T10:46:15.054Z,100.00
2019-02-17T10:48:43.506Z,100.00
2019-02-17T10:51:11.940Z,100.00
2019-02-17T10:53:40.396Z,100.00
2019-02-17T10:56:08.825Z,100.00
2019-02-17T10:58:37.292Z,100.00
2019-02-17T11:01:05.723Z,100.00
2019-02-17T11:03:34.178Z,100.00
2019-02-17T11:06:02.597Z,100.00
2019-02-17T11:08:31.050Z,100.00
2019-02-17T11:10:59.486Z,100.00
2019-02-17T11:13:27.944Z,100.00
2019-02-17T11:15:56.368Z,100.00
2019-02-17T11:18:24.899Z,100.00
2019-02-17T11:20:53.399Z,100.00
2019-02-17T11:23:21.865Z,100.00
2019-02-17T11:25:50.291Z,100.00
2019-02-17T11:28:18.753Z,100.00
2019-02-17T11:30:47.238Z,100.00
2019-02-17T11:33:15.705Z,100.00
2019-02-17T11:35:44.136Z,100.00
2019-02-17T11:38:12.603Z,100.00
2019-02-17T11:40:41.098Z,98.78
2019-02-17T11:43:09.547Z,98.67
2019-02-17T11:45:37.975Z,99.55
2019-02-17T11:48:06.497Z,99.67
2019-02-17T11:50:34.921Z,99.42
2019-02-17T11:53:03.372Z,97.34
2019-02-17T11:55:31.794Z,96.38
2019-02-17T11:58:00.270Z,99.50
2019-02-17T12:00:28.678Z,97.80
2019-02-17T12:03:07.288Z,99.55
2019-02-17T12:05:27.343Z,100.00
2019-02-17T12:07:55.763Z,97.31
2019-02-17T12:10:24.222Z,96.74
2019-02-17T12:12:52.642Z,94.52
2019-02-17T12:15:21.163Z,96.83
2019-02-17T12:17:49.588Z,97.40
2019-02-17T12:20:27.341Z,95.50
2019-02-17T12:23:06.233Z,96.82
2019-02-17T12:25:36.324Z,96.66
2019-02-17T12:28:06.395Z,96.03
2019-02-17T12:30:34.844Z,97.58
2019-02-17T12:33:03.271Z,94.76
2019-02-17T12:35:31.735Z,94.65
2019-02-17T12:38:00.165Z,95.20
2019-02-17T12:40:28.613Z,94.70
2019-02-17T12:42:57.035Z,95.41
2019-02-17T12:45:25.491Z,94.30
2019-02-17T12:47:57.865Z,94.81
2019-02-17T12:50:24.098Z,93.55
2019-02-17T12:52:52.524Z,94.41
2019-02-17T12:55:21.050Z,93.59
2019-02-17T12:57:49.541Z,96.46
2019-02-17T13:00:18.370Z,94.81
2019-02-17T13:02:47.102Z,91.39
2019-02-17T13:05:15.593Z,90.99
2019-02-17T13:07:44.019Z,91.50
2019-02-17T13:10:12.640Z,92.26
2019-02-17T13:12:41.093Z,91.29
2019-02-17T13:15:13.631Z,94.41
2019-02-17T13:17:42.058Z,92.09
2019-02-17T13:20:12.247Z,91.05
2019-02-17T13:22:40.739Z,93.18
2019-02-17T13:25:12.364Z,88.19
2019-02-17T13:27:40.788Z,90.14
2019-02-17T13:30:24.434Z,87.33
2019-02-17T13:32:52.938Z,88.65
2019-02-17T13:35:21.402Z,86.79
2019-02-17T13:37:49.820Z,87.51
2019-02-17T13:40:18.272Z,88.07
2019-02-17T13:42:47.008Z,87.97
2019-02-17T13:45:16.763Z,85.89
2019-02-17T13:47:45.189Z,87.28
2019-02-17T13:50:15.185Z,88.22
2019-02-17T13:52:43.598Z,86.00
2019-02-17T13:55:12.417Z,88.38
2019-02-17T13:57:40.908Z,87.31
2019-02-17T14:00:17.138Z,85.52
2019-02-17T14:02:45.558Z,85.51
2019-02-17T14:05:14.125Z,84.45
2019-02-17T14:07:42.519Z,88.05
2019-02-17T14:10:12.512Z,84.07
2019-02-17T14:12:40.944Z,86.73
2019-02-17T14:15:17.564Z,89.28
2019-02-17T14:17:45.982Z,87.82
2019-02-17T14:20:14.602Z,85.09
2019-02-17T14:22:43.082Z,85.35
2019-02-17T14:25:11.750Z,83.97
2019-02-17T14:27:40.285Z,84.28
2019-02-17T14:30:14.698Z,82.70
2019-02-17T14:32:43.217Z,83.97
2019-02-17T14:35:11.711Z,85.03
2019-02-17T14:37:40.164Z,89.70
2019-02-17T14:40:11.673Z,92.75
2019-02-17T14:42:40.134Z,92.47
2019-02-17T14:45:15.749Z,90.24
2019-02-17T14:47:44.281Z,90.94
2019-02-17T14:50:13.442Z,91.81
2019-02-17T14:52:41.891Z,90.18
2019-02-17T14:55:11.657Z,91.79
2019-02-17T14:57:40.113Z,94.14
2019-02-17T15:00:15.927Z,95.22
2019-02-17T15:02:44.461Z,97.07
2019-02-17T15:05:12.880Z,96.43
2019-02-17T15:07:41.325Z,97.03
2019-02-17T15:10:14.234Z,97.31
2019-02-17T15:12:42.763Z,99.84
2019-02-17T15:15:12.731Z,99.32
2019-02-17T15:17:41.186Z,98.15
2019-02-17T15:20:12.451Z,100.00
2019-02-17T15:22:40.907Z,99.28
2019-02-17T15:25:11.386Z,99.30
2019-02-17T15:27:39.903Z,100.00
2019-02-17T15:30:17.604Z,99.00
2019-02-17T15:32:45.570Z,98.93
2019-02-17T15:35:13.998Z,100.00
2019-02-17T15:37:42.458Z,99.24
2019-02-17T15:40:12.612Z,99.84
2019-02-17T15:42:43.101Z,100.00
2019-02-17T15:45:12.464Z,100.00
2019-02-17T15:47:40.919Z,100.00
2019-02-17T15:50:11.280Z,100.00
2019-02-17T15:52:39.760Z,100.00
2019-02-17T15:55:13.077Z,100.00
2019-02-17T15:57:41.524Z,100.00
2019-02-17T16:00:16.003Z,100.00
2019-02-17T16:02:44.451Z,100.00
2019-02-17T16:05:13.033Z,100.00
2019-02-17T16:07:41.489Z,100.00
2019-02-17T16:10:13.823Z,100.00
2019-02-17T16:12:42.275Z,100.00
2019-02-17T16:15:16.388Z,100.00
2019-02-17T16:17:44.842Z,100.00
2019-02-17T16:20:14.302Z,100.00
2019-02-17T16:22:42.823Z,100.00
2019-02-17T16:25:12.193Z,100.00
2019-02-17T16:27:41.303Z,100.00
2019-02-17T16:30:18.818Z,100.00
2019-02-17T16:32:47.329Z,100.00
2019-02-17T16:35:15.754Z,100.00
2019-02-17T16:37:44.277Z,100.00
2019-02-17T16:40:17.150Z,100.00
2019-02-17T16:42:45.605Z,100.00
2019-02-17T16:45:15.568Z,100.00
2019-02-17T16:47:45.727Z,100.00
2019-02-17T16:50:19.967Z,100.00
2019-02-17T16:52:48.421Z,100.00
2019-02-17T16:55:16.920Z,100.00
2019-02-17T16:57:45.447Z,100.00
2019-02-17T17:00:18.153Z,100.00
2019-02-17T17:02:46.675Z,100.00
2019-02-17T17:05:15.279Z,100.00
2019-02-17T17:07:43.806Z,100.00
2019-02-17T17:10:12.229Z,100.00
2019-02-17T17:12:41.019Z,100.00
2019-02-17T17:15:10.312Z,100.00
2019-02-17T17:17:38.805Z,100.00
2019-02-17T17:20:15.447Z,100.00
2019-02-17T17:22:43.938Z,100.00
2019-02-17T17:25:12.837Z,100.00
2019-02-17T17:27:41.499Z,100.00
2019-02-17T17:30:14.916Z,100.00
2019-02-17T17:32:43.348Z,100.00
2019-02-17T17:35:11.879Z,100.00
2019-02-17T17:37:40.369Z,100.00
2019-02-17T17:40:15.609Z,100.00
2019-02-17T17:42:44.102Z,100.00
2019-02-17T17:45:22.607Z,100.00
2019-02-17T17:47:51.039Z,100.00
2019-02-17T17:50:19.499Z,100.00
2019-02-17T17:52:48.077Z,100.00
2019-02-17T17:55:16.553Z,100.00
2019-02-17T17:57:45.044Z,100.00
2019-02-17T18:00:19.195Z,100.00
2019-02-17T18:02:47.623Z,100.00
2019-02-17T18:05:16.146Z,100.00
2019-02-17T18:07:44.580Z,100.00
2019-02-17T18:10:14.573Z,100.00
2019-02-17T18:12:43.000Z,100.00
2019-02-17T18:15:19.190Z,100.00
2019-02-17T18:17:54.193Z,100.00
2019-02-17T18:20:17.927Z,100.00
2019-02-17T18:22:46.474Z,100.00
2019-02-17T18:25:15.196Z,100.00
2019-02-17T18:27:43.619Z,100.00
2019-02-17T18:30:18.924Z,100.00
2019-02-17T18:32:47.345Z,100.00
2019-02-17T18:35:19.605Z,100.00
2019-02-17T18:37:45.933Z,100.00
2019-02-17T18:40:15.717Z,100.00
2019-02-17T18:42:44.204Z,100.00
2019-02-17T18:45:13.962Z,100.00
2019-02-17T18:47:42.491Z,100.00
2019-02-17T18:50:15.911Z,100.00
2019-02-17T18:52:44.354Z,100.00
2019-02-17T18:55:14.491Z,100.00
2019-02-17T18:57:50.221Z,100.00
2019-02-17T19:00:15.816Z,100.00
2019-02-17T19:02:44.261Z,100.00
2019-02-17T19:05:12.747Z,100.00
2019-02-17T19:07:41.272Z,100.00
2019-02-17T19:10:13.948Z,100.00
2019-02-17T19:12:42.474Z,100.00
2019-02-17T19:15:13.802Z,100.00
2019-02-17T19:17:42.327Z,100.00
2019-02-17T19:20:13.667Z,100.00
2019-02-17T19:22:42.121Z,100.00
2019-02-17T19:25:10.717Z,100.00
2019-02-17T19:27:39.239Z,100.00
2019-02-17T19:30:10.477Z,100.00
2019-02-17T19:32:38.935Z,100.00
2019-02-17T19:35:10.206Z,100.00
2019-02-17T19:37:38.656Z,100.00
2019-02-17T19:40:09.937Z,100.00
2019-02-17T19:42:38.389Z,100.00
2019-02-17T19:45:09.916Z,100.00
2019-02-17T19:47:38.376Z,100.00
2019-02-17T19:50:09.618Z,100.00
2019-02-17T19:52:38.071Z,100.00
2019-02-17T19:55:07.947Z,100.00
2019-02-17T19:57:36.400Z,100.00
2019-02-17T20:00:08.151Z,100.00
2019-02-17T20:02:38.240Z,100.00
2019-02-17T20:05:08.973Z,100.00
2019-02-17T20:07:37.416Z,100.00
2019-02-17T20:10:08.553Z,100.00
2019-02-17T20:12:37.025Z,100.00
2019-02-17T20:15:07.787Z,100.00
2019-02-17T20:17:36.203Z,100.00
2019-02-17T20:20:07.693Z,100.00
2019-02-17T20:22:36.121Z,100.00
2019-02-17T20:25:05.720Z,100.00
2019-02-17T20:27:34.150Z,100.00
2019-02-17T20:30:02.607Z,100.00
2019-02-17T20:32:31.116Z,100.00
2019-02-17T20:34:59.558Z,100.00
2019-02-17T20:37:27.987Z,100.00
2019-02-17T20:39:56.435Z,100.00
2019-02-17T20:42:24.857Z,100.00
2019-02-17T20:44:53.307Z,100.00
2019-02-17T20:47:21.739Z,100.00
2019-02-17T20:49:50.186Z,100.00
2019-02-17T20:52:18.619Z,100.00
2019-02-17T20:54:47.073Z,100.00
2019-02-17T20:57:15.493Z,100.00
2019-02-17T20:59:43.951Z,100.00
2019-02-17T21:02:12.376Z,100.00
2019-02-17T21:04:40.907Z,100.00
2019-02-17T21:07:09.480Z,100.00
2019-02-17T21:09:37.940Z,100.00
2019-02-17T21:12:06.377Z,100.00
2019-02-17T21:14:34.910Z,100.00
2019-02-17T21:17:03.331Z,100.00
2019-02-17T21:19:31.787Z,100.00
2019-02-17T21:22:00.214Z,100.00
2019-02-17T21:24:28.668Z,100.00
2019-02-17T21:26:57.090Z,100.00
2019-02-17T21:29:25.534Z,100.00
2019-02-17T21:31:53.961Z,100.00
2019-02-17T21:34:22.417Z,100.00
2019-02-17T21:36:50.912Z,100.00
2019-02-17T21:39:19.367Z,100.00
2019-02-17T21:41:47.803Z,100.00
2019-02-17T21:44:16.740Z,100.00
2019-02-17T21:46:45.260Z,100.00
2019-02-17T21:49:13.674Z,100.00
2019-02-17T21:51:42.199Z,100.00
2019-02-17T21:54:10.627Z,100.00
2019-02-17T21:56:39.073Z,100.00
2019-02-17T21:59:07.502Z,100.00
2019-02-17T22:01:35.950Z,100.00
2019-02-17T22:04:04.458Z,100.00
2019-02-17T22:06:33.798Z,100.00
2019-02-17T22:09:02.324Z,100.00
2019-02-17T22:11:30.770Z,100.00
2019-02-17T22:13:59.197Z,100.00
2019-02-17T22:16:27.651Z,100.00
2019-02-17T22:18:56.142Z,100.00
2019-02-17T22:21:24.613Z,100.00
2019-02-17T22:23:53.028Z,100.00
2019-02-17T22:26:21.483Z,100.00
2019-02-17T22:28:49.912Z,100.00
2019-02-17T22:31:18.367Z,100.00
2019-02-17T22:33:46.795Z,100.00
2019-02-17T22:36:15.250Z,100.00
2019-02-17T22:38:43.686Z,100.00
2019-02-17T22:41:12.133Z,100.00
2019-02-17T22:43:40.551Z,100.00
2019-02-17T22:46:09.012Z,100.00
2019-02-17T22:48:37.436Z,100.00
2019-02-17T22:51:05.887Z,100.00
2019-02-17T22:53:43.361Z,100.00
2019-02-17T22:56:04.560Z,100.00
2019-02-17T22:58:32.984Z,100.00
2019-02-17T23:01:02.479Z,100.00
2019-02-17T23:03:31.355Z,100.00
2019-02-17T23:05:59.874Z,100.00
2019-02-17T23:08:28.301Z,100.00
2019-02-17T23:10:56.749Z,100.00
2019-02-17T23:13:25.238Z,100.00
2019-02-17T23:15:53.761Z,100.00
2019-02-17T23:18:22.183Z,100.00
2019-02-17T23:20:50.611Z,100.00
2019-02-17T23:23:19.060Z,100.00
2019-02-17T23:25:47.486Z,100.00
2019-02-17T23:28:15.937Z,100.00
2019-02-17T23:30:44.354Z,100.00
2019-02-17T23:33:12.803Z,100.00
2019-02-17T23:35:41.234Z,100.00
2019-02-17T23:38:09.681Z,100.00
2019-02-17T23:40:38.100Z,100.00
2019-02-17T23:43:06.629Z,100.00
2019-02-17T23:45:35.055Z,100.00
2019-02-17T23:48:03.509Z,100.00
2019-02-17T23:50:32.330Z,100.00
2019-02-17T23:53:00.753Z,100.00
2019-02-17T23:55:29.249Z,100.00
2019-02-17T23:57:57.702Z,100.00
